KPMD/PMD METAR and TAF weather

Enter ICAO airport designator
Station Type Date Time Source
KPMD METAR 2019/06/27 09:53 UTC NOAA

KPMD 270953Z AUTO VRB03KT 10SM CLR 19/06 A2998 RMK AO2 SLP126 T01940056


Station Type Date Time Source
KPMD Decoded METAR 2019/06/27 09:53 UTC NOAA

PALMDALE PROD FLIGHT PLANT, CA, United States (KPMD) 34-38N 118-05W 780M
Jun 27, 2019 - 05:53 AM EDT / 2019.06.27 0953 UTC
Wind: Variable at 3 MPH (3 KT):0
Visibility: 10 mile(s):0
Sky conditions: clear
Temperature: 66.9 F (19.4 C)
Dew Point: 42.1 F (5.6 C)
Relative Humidity: 40%
Pressure (altimeter): 29.98 in. Hg (1015 hPa)
ob: KPMD 270953Z AUTO VRB03KT 10SM CLR 19/06 A2998 RMK AO2 SLP126 T01940056
cycle: 10

Station Type Date Time Source
KPMD TAF 2019/06/27 06:22 UTC NOAA

TAF KPMD 270520Z 2706/2806 23011KT P6SM SKC
FM272100 24019G27KT P6SM SKC
FM280300 25012KT P6SM SKC

Example: see airport list